METAR Data

Data at: 0722 UTC 08 May 2021

KSJC 080653Z 32004KT 10SM CLR 12/07 A3004 RMK AO2 SLP171 LAST T01220072

KSJC 080539Z 0806/0906 34007KT P6SM SKC
  FM080700 VRB05KT P6SM SKC WS020/01030KT
  FM081200 VRB03KT P6SM SKC WS020/36025KT
  FM081500 32008KT P6SM SKC
  FM082000 33013KT P6SM SKC
  FM090300 31008KT P6SM SKC